createdAt,value
2023-03-02T00:02:06.856Z,83.40
2023-03-02T00:04:47.381Z,83.60
2023-03-02T00:07:17.011Z,83.60
2023-03-02T00:09:44.629Z,83.60
2023-03-02T00:12:11.583Z,83.80
2023-03-02T00:14:38.529Z,84.50
2023-03-02T00:17:05.769Z,84.40
2023-03-02T00:19:32.807Z,84.40
2023-03-02T00:21:59.745Z,84.50
2023-03-02T00:24:26.746Z,84.40
2023-03-02T00:26:53.656Z,84.40
2023-03-02T00:29:20.555Z,84.90
2023-03-02T00:31:47.483Z,85.10
2023-03-02T00:34:16.992Z,85.70
2023-03-02T00:36:44.211Z,85.70
2023-03-02T00:39:11.200Z,86.10
2023-03-02T00:41:38.084Z,86.60
2023-03-02T00:44:05.086Z,86.90
2023-03-02T00:46:32.689Z,87.30
2023-03-02T00:48:59.649Z,87.10
2023-03-02T00:51:26.487Z,86.80
2023-03-02T00:53:53.350Z,86.90
2023-03-02T00:56:20.300Z,86.90
2023-03-02T00:58:50.584Z,86.90
2023-03-02T01:01:18.843Z,87.10
2023-03-02T01:03:49.476Z,87.50
2023-03-02T01:06:18.761Z,87.40
2023-03-02T01:08:45.737Z,87.40
2023-03-02T01:11:14.434Z,87.60
2023-03-02T01:13:41.354Z,87.90
2023-03-02T01:16:08.618Z,87.90
2023-03-02T01:18:38.747Z,87.70
2023-03-02T01:21:08.430Z,88.00
2023-03-02T01:23:35.525Z,88.00
2023-03-02T01:26:02.603Z,87.90
2023-03-02T01:28:29.520Z,87.90
2023-03-02T01:30:56.476Z,87.70
2023-03-02T01:33:23.368Z,87.50
2023-03-02T01:35:50.293Z,87.30
2023-03-02T01:38:17.288Z,87.50
2023-03-02T01:40:44.233Z,87.70
2023-03-02T01:43:15.977Z,87.40
2023-03-02T01:46:20.102Z,87.60
2023-03-02T01:49:01.710Z,87.20
2023-03-02T01:51:46.333Z,87.20
2023-03-02T01:54:17.398Z,87.30
2023-03-02T01:56:44.757Z,87.80
2023-03-02T01:59:16.116Z,87.40
2023-03-02T02:01:45.284Z,87.90
2023-03-02T02:04:12.188Z,87.90
2023-03-02T02:06:39.903Z,87.70
2023-03-02T02:09:08.479Z,88.20
2023-03-02T02:11:36.037Z,88.10
2023-03-02T02:14:02.976Z,88.00
2023-03-02T02:16:31.962Z,88.20
2023-03-02T02:18:59.168Z,88.10
2023-03-02T02:21:26.195Z,88.30
2023-03-02T02:24:10.139Z,88.70
2023-03-02T02:26:48.719Z,89.40
2023-03-02T02:29:19.132Z,89.10
2023-03-02T02:31:51.507Z,88.80
2023-03-02T02:34:22.707Z,89.00
2023-03-02T02:36:54.261Z,89.00
2023-03-02T02:39:24.076Z,90.00
2023-03-02T02:41:51.816Z,90.30
2023-03-02T02:44:18.867Z,90.30
2023-03-02T02:46:45.759Z,90.30
2023-03-02T02:49:37.458Z,90.20
2023-03-02T02:52:04.901Z,90.60
2023-03-02T02:54:31.891Z,90.60
2023-03-02T02:56:59.149Z,90.50
2023-03-02T02:59:29.139Z,90.60
2023-03-02T03:01:58.933Z,90.70
2023-03-02T03:04:28.983Z,90.80
2023-03-02T03:07:04.139Z,91.00
2023-03-02T03:09:31.716Z,91.00
2023-03-02T03:12:01.326Z,90.90
2023-03-02T03:14:34.851Z,91.00
2023-03-02T03:17:01.819Z,91.00
2023-03-02T03:19:30.923Z,91.40
2023-03-02T03:22:02.094Z,91.60
2023-03-02T03:24:34.771Z,91.40
2023-03-02T03:27:05.598Z,91.40
2023-03-02T03:29:37.015Z,91.70
2023-03-02T03:32:06.991Z,91.90
2023-03-02T03:34:40.647Z,91.60
2023-03-02T03:37:16.240Z,91.80
2023-03-02T03:39:43.847Z,91.90
2023-03-02T03:42:11.112Z,91.90
2023-03-02T03:44:38.291Z,92.20
2023-03-02T03:47:05.900Z,92.30
2023-03-02T03:49:33.165Z,91.90
2023-03-02T03:52:00.097Z,91.70
2023-03-02T03:54:27.197Z,91.90
2023-03-02T03:56:54.193Z,92.30
2023-03-02T03:59:23.309Z,92.20
2023-03-02T04:01:58.913Z,91.80
2023-03-02T04:04:31.097Z,91.90
2023-03-02T04:06:58.610Z,92.00
2023-03-02T04:09:25.759Z,92.00
2023-03-02T04:11:54.911Z,92.30
2023-03-02T04:14:22.915Z,92.50
2023-03-02T04:16:51.130Z,92.40
2023-03-02T04:19:18.785Z,92.30
2023-03-02T04:21:49.632Z,92.20
2023-03-02T04:24:18.821Z,92.50
2023-03-02T04:26:46.586Z,92.20
2023-03-02T04:29:14.633Z,92.60
2023-03-02T04:31:42.262Z,92.20
2023-03-02T04:34:09.916Z,92.50
2023-03-02T04:36:39.745Z,92.70
2023-03-02T04:39:10.728Z,93.00
2023-03-02T04:41:37.674Z,93.00
2023-03-02T04:44:04.691Z,92.90
2023-03-02T04:46:32.308Z,93.30
2023-03-02T04:48:59.333Z,93.50
2023-03-02T04:51:31.372Z,93.40
2023-03-02T04:54:00.274Z,93.50
2023-03-02T04:56:27.284Z,93.50
2023-03-02T04:58:54.263Z,93.50
2023-03-02T05:01:21.515Z,93.40
2023-03-02T05:03:48.765Z,93.10
2023-03-02T05:06:15.829Z,93.30
2023-03-02T05:08:43.161Z,93.10
2023-03-02T05:11:11.135Z,93.10
2023-03-02T05:13:38.041Z,93.10
2023-03-02T05:16:05.309Z,93.10
2023-03-02T05:18:32.268Z,93.20
2023-03-02T05:20:59.129Z,93.10
2023-03-02T05:23:27.226Z,93.30
2023-03-02T05:25:55.166Z,93.80
2023-03-02T05:28:22.998Z,93.50
2023-03-02T05:30:49.972Z,93.40
2023-03-02T05:33:17.000Z,93.50
2023-03-02T05:35:44.133Z,93.50
2023-03-02T05:38:11.751Z,93.70
2023-03-02T05:40:39.053Z,93.40
2023-03-02T05:43:06.088Z,93.30
2023-03-02T05:45:37.261Z,93.20
2023-03-02T05:48:04.599Z,93.20
2023-03-02T05:50:31.711Z,93.60
2023-03-02T05:53:00.252Z,94.10
2023-03-02T05:55:27.208Z,94.00
2023-03-02T05:57:54.386Z,93.90
2023-03-02T06:00:21.668Z,93.80
2023-03-02T06:02:48.658Z,94.20
2023-03-02T06:05:17.435Z,94.20
2023-03-02T06:07:44.474Z,94.10
2023-03-02T06:10:12.134Z,93.90
2023-03-02T06:12:39.085Z,94.00
2023-03-02T06:15:06.794Z,93.90
2023-03-02T06:17:33.693Z,94.00
2023-03-02T06:20:00.589Z,93.70
2023-03-02T06:22:27.458Z,93.70
2023-03-02T06:24:55.365Z,93.60
2023-03-02T06:27:22.314Z,93.60
2023-03-02T06:29:49.405Z,93.70
2023-03-02T06:32:16.483Z,93.80
2023-03-02T06:34:43.418Z,93.80
2023-03-02T06:37:10.568Z,93.80
2023-03-02T06:39:37.504Z,93.90
2023-03-02T06:42:04.373Z,93.80
2023-03-02T06:44:31.363Z,93.70
2023-03-02T06:46:58.208Z,94.10
2023-03-02T06:49:25.178Z,94.00
2023-03-02T06:51:52.035Z,93.80
2023-03-02T06:54:18.920Z,93.80
2023-03-02T06:56:45.781Z,94.10
2023-03-02T06:59:12.676Z,94.10
2023-03-02T07:01:39.535Z,94.30
2023-03-02T07:04:06.584Z,94.70
2023-03-02T07:06:33.453Z,94.50
2023-03-02T07:09:01.201Z,94.60
2023-03-02T07:11:28.036Z,94.70
2023-03-02T07:13:54.954Z,94.60
2023-03-02T07:16:21.880Z,95.10
2023-03-02T07:18:48.742Z,95.20
2023-03-02T07:21:15.657Z,95.00
2023-03-02T07:23:42.572Z,95.40
2023-03-02T07:26:09.500Z,95.30
2023-03-02T07:28:39.549Z,95.30
2023-03-02T07:31:06.669Z,95.20
2023-03-02T07:33:33.591Z,95.40
2023-03-02T07:36:00.710Z,95.10
2023-03-02T07:38:27.835Z,95.30
2023-03-02T07:40:54.855Z,95.00
2023-03-02T07:43:24.088Z,94.90
2023-03-02T07:45:51.050Z,94.70
2023-03-02T07:48:18.294Z,94.40
2023-03-02T07:50:45.217Z,94.40
2023-03-02T07:53:12.357Z,94.10
2023-03-02T07:55:42.111Z,94.10
2023-03-02T07:58:08.949Z,93.90
2023-03-02T08:00:36.765Z,93.60
2023-03-02T08:03:03.836Z,93.60
2023-03-02T08:05:30.906Z,93.30
2023-03-02T08:07:57.870Z,93.20
2023-03-02T08:10:24.847Z,93.00
2023-03-02T08:12:51.884Z,92.90
2023-03-02T08:15:18.767Z,92.40
2023-03-02T08:17:45.696Z,92.40
2023-03-02T08:20:12.813Z,92.50
2023-03-02T08:22:39.719Z,92.40
2023-03-02T08:25:07.462Z,92.30
2023-03-02T08:27:34.311Z,92.50
2023-03-02T08:30:01.293Z,92.20
2023-03-02T08:32:28.253Z,92.00
2023-03-02T08:34:55.135Z,91.90
2023-03-02T08:37:22.046Z,92.20
2023-03-02T08:39:48.953Z,91.90
2023-03-02T08:42:16.379Z,91.70
2023-03-02T08:44:43.496Z,91.60
2023-03-02T08:47:10.486Z,91.20
2023-03-02T08:49:40.570Z,91.20
2023-03-02T08:52:07.581Z,90.90
2023-03-02T08:54:34.705Z,91.20
2023-03-02T08:57:02.251Z,90.50
2023-03-02T08:59:29.178Z,90.80
2023-03-02T09:01:56.007Z,90.50
2023-03-02T09:04:22.985Z,90.60
2023-03-02T09:06:50.032Z,90.40
2023-03-02T09:09:17.027Z,90.20
2023-03-02T09:11:44.958Z,89.50
2023-03-02T09:14:11.919Z,89.20
2023-03-02T09:16:38.942Z,87.10
2023-03-02T09:19:05.928Z,87.70
2023-03-02T09:21:33.122Z,86.50
2023-03-02T09:24:00.257Z,88.20
2023-03-02T09:26:27.327Z,90.10
2023-03-02T09:28:54.820Z,89.10
2023-03-02T09:31:21.889Z,86.10
2023-03-02T09:33:48.860Z,85.20
2023-03-02T09:36:21.730Z,85.70
2023-03-02T09:38:48.841Z,85.30
2023-03-02T09:41:21.962Z,85.30
2023-03-02T09:44:13.417Z,82.00
2023-03-02T09:46:46.352Z,83.10
2023-03-02T09:49:50.681Z,82.80
2023-03-02T09:52:38.520Z,81.40
2023-03-02T09:55:16.701Z,79.50
2023-03-02T09:57:44.707Z,79.40
2023-03-02T10:00:31.361Z,83.20
2023-03-02T10:03:16.164Z,81.10
2023-03-02T10:05:54.395Z,79.40
2023-03-02T10:08:29.377Z,78.10
2023-03-02T10:11:04.928Z,75.10
2023-03-02T10:13:49.298Z,73.00
2023-03-02T10:16:37.513Z,74.70
2023-03-02T10:19:15.030Z,71.00
2023-03-02T10:21:44.495Z,75.40
2023-03-02T10:24:30.483Z,74.40
2023-03-02T10:27:17.746Z,75.90
2023-03-02T10:29:53.518Z,74.60
2023-03-02T10:32:45.081Z,75.30
2023-03-02T10:35:18.371Z,70.70
2023-03-02T10:37:45.316Z,74.00
2023-03-02T10:40:36.670Z,76.60
2023-03-02T10:43:03.548Z,73.30
2023-03-02T10:45:32.162Z,71.60
2023-03-02T10:48:05.750Z,71.80
2023-03-02T10:50:32.940Z,73.80
2023-03-02T10:53:01.563Z,77.40
2023-03-02T10:55:30.109Z,77.70
2023-03-02T10:58:07.846Z,73.10
2023-03-02T11:00:35.083Z,70.30
2023-03-02T11:03:23.341Z,71.10
2023-03-02T11:05:50.336Z,72.60
2023-03-02T11:08:21.602Z,69.00
2023-03-02T11:11:00.829Z,67.60
2023-03-02T11:13:36.228Z,69.30
2023-03-02T11:16:04.624Z,69.00
2023-03-02T11:18:31.578Z,66.70
2023-03-02T11:21:15.502Z,71.20
2023-03-02T11:24:00.975Z,66.80
2023-03-02T11:26:44.543Z,65.90
2023-03-02T11:29:39.083Z,64.40
2023-03-02T11:32:09.028Z,67.30
2023-03-02T11:34:46.760Z,67.70
2023-03-02T11:37:16.784Z,66.30
2023-03-02T11:39:56.920Z,62.20
2023-03-02T11:42:35.541Z,62.80
2023-03-02T11:45:18.474Z,64.40
2023-03-02T11:48:02.543Z,61.80
2023-03-02T11:50:31.389Z,66.90
2023-03-02T11:52:59.784Z,63.40
2023-03-02T11:55:27.996Z,61.90
2023-03-02T11:57:56.731Z,68.90
2023-03-02T12:00:29.935Z,62.50
2023-03-02T12:03:15.222Z,63.30
2023-03-02T12:05:47.269Z,60.30
2023-03-02T12:08:20.256Z,64.50
2023-03-02T12:11:00.346Z,61.60
2023-03-02T12:13:30.321Z,64.60
2023-03-02T12:15:57.294Z,63.90
2023-03-02T12:18:24.876Z,65.10
2023-03-02T12:21:01.810Z,64.00
2023-03-02T12:23:29.024Z,59.20
2023-03-02T12:26:20.490Z,64.80
2023-03-02T12:29:02.266Z,63.50
2023-03-02T12:31:48.244Z,61.70
2023-03-02T12:34:24.192Z,63.30
2023-03-02T12:36:52.592Z,62.40
2023-03-02T12:39:40.301Z,64.00
2023-03-02T12:42:19.550Z,63.80
2023-03-02T12:44:59.146Z,65.50
2023-03-02T12:47:29.889Z,64.60
2023-03-02T12:50:16.671Z,59.50
2023-03-02T12:52:43.660Z,61.80
2023-03-02T12:55:17.213Z,56.40
2023-03-02T12:57:51.490Z,56.30
2023-03-02T13:00:23.880Z,53.50
2023-03-02T13:02:52.237Z,60.20
2023-03-02T13:05:27.579Z,58.90
2023-03-02T13:08:00.924Z,60.10
2023-03-02T13:10:36.169Z,59.60
2023-03-02T13:13:04.641Z,58.90
2023-03-02T13:15:31.574Z,61.80
2023-03-02T13:17:59.840Z,56.90
2023-03-02T13:20:28.906Z,54.10
2023-03-02T13:22:55.834Z,54.00
2023-03-02T13:25:27.823Z,52.70
2023-03-02T13:28:01.880Z,53.70
2023-03-02T13:30:30.703Z,48.00
2023-03-02T13:33:01.694Z,45.00
2023-03-02T13:35:33.703Z,46.20
2023-03-02T13:38:01.787Z,51.90
2023-03-02T13:40:34.839Z,55.70
2023-03-02T13:43:01.876Z,49.90
2023-03-02T13:45:30.438Z,41.50
2023-03-02T13:47:59.297Z,47.30
2023-03-02T13:50:28.167Z,49.50
2023-03-02T13:53:00.667Z,47.30
2023-03-02T13:55:27.637Z,50.20
2023-03-02T13:57:54.561Z,48.80
2023-03-02T14:00:34.125Z,39.80
2023-03-02T14:03:01.288Z,42.70
2023-03-02T14:05:33.614Z,37.40
2023-03-02T14:08:00.877Z,37.10
2023-03-02T14:10:27.855Z,37.40
2023-03-02T14:13:01.765Z,47.70
2023-03-02T14:15:28.725Z,48.20
2023-03-02T14:17:55.638Z,49.30
2023-03-02T14:20:22.594Z,49.40
2023-03-02T14:22:50.745Z,50.80
2023-03-02T14:25:17.880Z,50.70
2023-03-02T14:27:47.225Z,48.90
2023-03-02T14:30:19.126Z,46.70
2023-03-02T14:32:46.180Z,48.20
2023-03-02T14:35:14.276Z,51.20
2023-03-02T14:37:43.273Z,39.70
2023-03-02T14:40:30.685Z,42.50
2023-03-02T14:42:57.705Z,36.80
2023-03-02T14:45:24.650Z,40.80
2023-03-02T14:47:51.556Z,48.40
2023-03-02T14:50:18.611Z,38.10
2023-03-02T14:52:49.813Z,35.10
2023-03-02T14:55:36.396Z,37.90
2023-03-02T14:58:30.394Z,36.50
2023-03-02T15:00:57.341Z,36.40
2023-03-02T15:03:25.770Z,42.70
2023-03-02T15:06:00.786Z,38.20
2023-03-02T15:08:28.809Z,42.80
2023-03-02T15:10:55.714Z,45.80
2023-03-02T15:13:22.658Z,48.70
2023-03-02T15:15:50.223Z,42.00
2023-03-02T15:18:19.905Z,41.50
2023-03-02T15:20:47.101Z,39.60
2023-03-02T15:23:13.947Z,41.90
2023-03-02T15:25:40.910Z,44.10
2023-03-02T15:28:07.786Z,40.70
2023-03-02T15:30:34.686Z,43.00
2023-03-02T15:33:01.710Z,46.90
2023-03-02T15:35:29.483Z,41.90
2023-03-02T15:37:58.388Z,41.70
2023-03-02T15:40:25.915Z,41.30
2023-03-02T15:42:53.215Z,43.50
2023-03-02T15:45:20.272Z,45.90
2023-03-02T15:47:47.250Z,42.50
2023-03-02T15:50:14.909Z,48.00
2023-03-02T15:52:42.048Z,39.70
2023-03-02T15:55:09.443Z,45.20
2023-03-02T15:57:38.369Z,41.00
2023-03-02T16:00:05.829Z,34.80
2023-03-02T16:02:33.077Z,36.30
2023-03-02T16:04:59.990Z,39.30
2023-03-02T16:07:26.904Z,39.20
2023-03-02T16:09:53.761Z,36.00
2023-03-02T16:12:23.440Z,31.40
2023-03-02T16:14:50.379Z,33.50
2023-03-02T16:17:20.631Z,34.50
2023-03-02T16:19:47.506Z,39.40
2023-03-02T16:22:14.482Z,36.00
2023-03-02T16:24:41.998Z,37.60
2023-03-02T16:27:09.109Z,37.50
2023-03-02T16:29:36.043Z,36.70
2023-03-02T16:32:03.099Z,35.20
2023-03-02T16:34:30.134Z,37.50
2023-03-02T16:36:57.079Z,36.10
2023-03-02T16:39:24.283Z,35.80
2023-03-02T16:41:51.573Z,37.40
2023-03-02T16:44:18.760Z,32.70
2023-03-02T16:46:45.903Z,38.00
2023-03-02T16:49:13.202Z,40.10
2023-03-02T16:51:40.549Z,40.00
2023-03-02T16:54:07.576Z,41.50
2023-03-02T16:56:34.578Z,43.10
2023-03-02T16:59:01.442Z,46.90
2023-03-02T17:01:29.183Z,48.00
2023-03-02T17:03:56.518Z,49.50
2023-03-02T17:06:23.860Z,47.90
2023-03-02T17:08:50.985Z,48.90
2023-03-02T17:11:18.510Z,49.70
2023-03-02T17:13:45.534Z,49.70
2023-03-02T17:16:12.675Z,49.60
2023-03-02T17:18:41.064Z,47.00
2023-03-02T17:21:08.209Z,47.20
2023-03-02T17:23:36.891Z,48.70
2023-03-02T17:26:04.067Z,49.40
2023-03-02T17:28:31.050Z,49.40
2023-03-02T17:30:58.004Z,49.40
2023-03-02T17:33:24.930Z,49.30
2023-03-02T17:35:52.245Z,50.50
2023-03-02T17:38:19.255Z,50.10
2023-03-02T17:40:46.118Z,49.10
2023-03-02T17:43:13.048Z,49.10
2023-03-02T17:45:39.923Z,50.80
2023-03-02T17:48:07.121Z,52.10
2023-03-02T17:50:34.051Z,52.10
2023-03-02T17:53:02.182Z,53.20
2023-03-02T17:55:29.252Z,53.90
2023-03-02T17:57:56.193Z,54.70
2023-03-02T18:00:23.724Z,55.10
2023-03-02T18:02:50.867Z,56.00
2023-03-02T18:05:17.864Z,56.80
2023-03-02T18:07:44.763Z,57.00
2023-03-02T18:10:11.792Z,57.70
2023-03-02T18:12:38.678Z,58.30
2023-03-02T18:15:06.134Z,58.80
2023-03-02T18:17:32.996Z,59.50
2023-03-02T18:19:59.925Z,60.20
2023-03-02T18:22:26.807Z,61.00
2023-03-02T18:24:53.752Z,61.80
2023-03-02T18:27:20.693Z,63.10
2023-03-02T18:29:47.858Z,63.70
2023-03-02T18:32:14.884Z,64.80
2023-03-02T18:34:42.063Z,65.20
2023-03-02T18:37:09.190Z,65.00
2023-03-02T18:39:37.865Z,65.10
2023-03-02T18:42:05.504Z,66.60
2023-03-02T18:44:32.591Z,67.20
2023-03-02T18:47:00.777Z,66.10
2023-03-02T18:49:28.207Z,67.30
2023-03-02T18:51:56.637Z,66.80
2023-03-02T18:54:24.019Z,68.20
2023-03-02T18:56:51.229Z,68.40
2023-03-02T18:59:18.333Z,69.40
2023-03-02T19:01:46.293Z,69.30
2023-03-02T19:04:14.363Z,71.80
2023-03-02T19:06:41.994Z,68.60
2023-03-02T19:09:08.957Z,70.10
2023-03-02T19:11:35.824Z,70.10
2023-03-02T19:14:02.772Z,70.00
2023-03-02T19:16:29.700Z,72.40
2023-03-02T19:18:56.845Z,73.80
2023-03-02T19:21:23.721Z,71.10
2023-03-02T19:23:50.571Z,72.00
2023-03-02T19:26:17.508Z,73.10
2023-03-02T19:28:44.416Z,74.20
2023-03-02T19:31:11.579Z,76.00
2023-03-02T19:33:38.843Z,76.00
2023-03-02T19:36:06.253Z,77.40
2023-03-02T19:38:33.377Z,76.60
2023-03-02T19:41:00.937Z,78.20
2023-03-02T19:43:28.027Z,77.30
2023-03-02T19:45:54.914Z,75.80
2023-03-02T19:48:21.899Z,78.10
2023-03-02T19:50:48.785Z,79.50
2023-03-02T19:53:17.131Z,78.20
2023-03-02T19:55:44.514Z,78.60
2023-03-02T19:58:17.154Z,79.60
2023-03-02T20:00:44.526Z,79.40
2023-03-02T20:03:11.461Z,78.90
2023-03-02T20:05:38.492Z,79.10
2023-03-02T20:08:06.250Z,80.10
2023-03-02T20:10:41.552Z,80.20
2023-03-02T20:13:08.970Z,80.70
2023-03-02T20:15:38.326Z,81.40
2023-03-02T20:18:07.639Z,81.90
2023-03-02T20:20:34.465Z,82.30
2023-03-02T20:23:01.499Z,84.00
2023-03-02T20:25:28.657Z,83.00
2023-03-02T20:27:55.581Z,82.80
2023-03-02T20:30:27.907Z,83.10
2023-03-02T20:32:55.821Z,84.80
2023-03-02T20:35:22.948Z,83.20
2023-03-02T20:37:50.106Z,83.40
2023-03-02T20:40:17.358Z,85.60
2023-03-02T20:42:44.814Z,84.80
2023-03-02T20:45:12.119Z,84.10
2023-03-02T20:47:39.085Z,84.70
2023-03-02T20:50:07.910Z,85.10
2023-03-02T20:52:34.957Z,83.20
2023-03-02T20:55:01.883Z,83.00
2023-03-02T20:57:28.893Z,84.50
2023-03-02T20:59:55.819Z,82.60
2023-03-02T21:02:23.201Z,83.50
2023-03-02T21:04:50.144Z,82.80
2023-03-02T21:07:17.283Z,83.90
2023-03-02T21:09:44.357Z,83.90
2023-03-02T21:12:11.946Z,84.40
2023-03-02T21:14:39.481Z,83.70
2023-03-02T21:17:06.562Z,83.50
2023-03-02T21:19:34.290Z,84.30
2023-03-02T21:22:01.230Z,85.00
2023-03-02T21:24:28.178Z,84.00
2023-03-02T21:26:55.100Z,84.00
2023-03-02T21:29:23.212Z,85.00
2023-03-02T21:31:50.419Z,83.90
2023-03-02T21:34:19.008Z,84.20
2023-03-02T21:36:46.275Z,83.20
2023-03-02T21:39:13.650Z,83.40
2023-03-02T21:41:40.653Z,83.20
2023-03-02T21:44:07.659Z,83.60
2023-03-02T21:46:35.158Z,83.60
2023-03-02T21:49:02.060Z,84.50
2023-03-02T21:51:29.056Z,84.60
2023-03-02T21:53:55.931Z,85.00
2023-03-02T21:56:24.200Z,85.00
2023-03-02T21:58:52.807Z,83.90
2023-03-02T22:01:20.095Z,84.80
2023-03-02T22:03:47.133Z,84.30
2023-03-02T22:06:18.672Z,84.80
2023-03-02T22:08:45.570Z,84.00
2023-03-02T22:11:33.666Z,85.00
2023-03-02T22:14:21.004Z,85.00
2023-03-02T22:16:48.097Z,85.00
2023-03-02T22:19:30.174Z,85.00
2023-03-02T22:22:00.868Z,85.00
2023-03-02T22:24:29.114Z,84.50
2023-03-02T22:27:04.886Z,85.00
2023-03-02T22:29:41.374Z,85.00
2023-03-02T22:32:15.394Z,85.00
2023-03-02T22:34:43.157Z,85.70
2023-03-02T22:37:14.669Z,85.00
2023-03-02T22:39:42.359Z,86.30
2023-03-02T22:42:15.538Z,85.40
2023-03-02T22:44:43.100Z,85.70
2023-03-02T22:47:18.792Z,86.30
2023-03-02T22:49:46.480Z,85.50
2023-03-02T22:52:17.797Z,85.90
2023-03-02T22:54:45.800Z,86.10
2023-03-02T22:57:24.832Z,86.50
2023-03-02T22:59:51.743Z,86.70
2023-03-02T23:02:21.066Z,86.60
2023-03-02T23:04:48.305Z,86.00
2023-03-02T23:07:20.213Z,86.60
2023-03-02T23:09:47.316Z,85.60
2023-03-02T23:12:23.212Z,85.00
2023-03-02T23:14:51.692Z,86.30
2023-03-02T23:17:31.823Z,85.80
2023-03-02T23:19:58.656Z,85.70
2023-03-02T23:22:28.633Z,86.00
2023-03-02T23:24:58.802Z,85.00
2023-03-02T23:27:25.575Z,85.00
2023-03-02T23:29:52.652Z,85.70
2023-03-02T23:32:19.900Z,85.00
2023-03-02T23:34:46.976Z,85.00
2023-03-02T23:37:13.837Z,85.00
2023-03-02T23:39:40.645Z,85.00
2023-03-02T23:42:08.490Z,85.00
2023-03-02T23:44:35.328Z,85.00
2023-03-02T23:47:02.177Z,85.40
2023-03-02T23:49:29.040Z,85.00
2023-03-02T23:51:55.882Z,85.00
2023-03-02T23:54:22.745Z,84.30
2023-03-02T23:56:49.717Z,84.30
2023-03-02T23:59:16.531Z,85.00
